Time;durP1;ratioP1;P1;durP2;ratioP2;P2;SDS_P1;SDS_P2;PMS_P1;PMS_P2;Temp;Humidity;BMP_temperature;BMP_pressure;BME280_temperature;BME280_humidity;BME280_pressure;Samples;Min_cycle;Max_cycle;Signal;HPM_P1;HPM_P2
2023/04/18 00:00:23;;;;;;;1.20;1.10;;;22.10;68.50;;;;;;5033842;28;20036;-71
2023/04/18 00:02:52;;;;;;;2.35;1.30;;;22.20;68.50;;;;;;5033296;28;20021;-71
2023/04/18 00:05:18;;;;;;;1.48;1.30;;;22.20;68.40;;;;;;5034677;28;20029;-71
2023/04/18 00:07:44;;;;;;;1.33;1.23;;;22.20;68.40;;;;;;5033524;28;20100;-71
2023/04/18 00:10:10;;;;;;;1.42;1.30;;;22.20;68.40;;;;;;5033127;28;20068;-71
2023/04/18 00:12:35;;;;;;;2.00;1.13;;;22.20;68.40;;;;;;5034687;28;20024;-71
2023/04/18 00:15:02;;;;;;;1.55;1.35;;;22.20;68.40;;;;;;5033450;28;20026;-71
2023/04/18 00:17:29;;;;;;;1.58;1.23;;;22.20;68.30;;;;;;5033013;28;20553;-71
2023/04/18 00:19:55;;;;;;;1.35;1.25;;;22.20;68.30;;;;;;5034300;28;20032;-71
2023/04/18 00:22:21;;;;;;;1.60;1.48;;;22.30;68.40;;;;;;5033313;28;20427;-71
2023/04/18 00:24:50;;;;;;;1.58;1.25;;;22.30;68.40;;;;;;5033160;28;20025;-71
2023/04/18 00:27:19;;;;;;;1.20;1.20;;;22.30;68.30;;;;;;5033255;28;20018;-71
2023/04/18 00:29:46;;;;;;;1.27;1.17;;;22.30;68.30;;;;;;5033127;28;20491;-71
2023/04/18 00:32:11;;;;;;;0.98;0.98;;;22.30;68.30;;;;;;5034197;28;20031;-71
2023/04/18 00:34:37;;;;;;;1.30;1.17;;;22.30;68.30;;;;;;5032963;28;20116;-71
2023/04/18 00:37:03;;;;;;;1.27;1.17;;;22.30;68.30;;;;;;5034042;28;20415;-71
2023/04/18 00:39:28;;;;;;;1.40;1.30;;;22.30;68.30;;;;;;5032684;28;20491;-71
2023/04/18 00:41:54;;;;;;;2.05;1.10;;;22.40;68.30;;;;;;5033893;28;20060;-70
2023/04/18 00:44:20;;;;;;;3.42;1.38;;;22.40;68.30;;;;;;5033782;28;20112;-70
2023/04/18 00:46:45;;;;;;;1.30;1.20;;;22.40;68.30;;;;;;5033678;28;20021;-70
2023/04/18 00:49:11;;;;;;;3.13;1.40;;;22.40;68.40;;;;;;5033864;28;20021;-70
2023/04/18 00:51:37;;;;;;;2.67;1.48;;;22.40;68.40;;;;;;5032785;28;20080;-70
2023/04/18 00:54:03;;;;;;;1.30;1.20;;;22.40;68.40;;;;;;5032231;28;20484;-70
2023/04/18 00:56:29;;;;;;;2.22;1.23;;;22.40;68.40;;;;;;5032602;28;20025;-70
2023/04/18 00:58:55;;;;;;;1.00;1.00;;;22.40;68.40;;;;;;5033763;28;20031;-70
2023/04/18 01:01:21;;;;;;;1.15;1.05;;;22.40;68.40;;;;;;5032246;28;20045;-70
2023/04/18 01:03:46;;;;;;;1.30;1.20;;;22.40;68.40;;;;;;5033493;28;20065;-70
2023/04/18 01:06:12;;;;;;;0.95;0.95;;;22.40;68.40;;;;;;5033571;28;20029;-70
2023/04/18 01:08:38;;;;;;;1.15;1.10;;;22.40;68.40;;;;;;5032416;28;20026;-71
2023/04/18 01:11:03;;;;;;;1.30;1.20;;;22.40;68.40;;;;;;5033043;28;20029;-71
2023/04/18 01:13:29;;;;;;;1.33;1.23;;;22.40;68.40;;;;;;5033468;28;20065;-70
2023/04/18 01:15:54;;;;;;;1.40;1.17;;;22.50;68.40;;;;;;5033231;28;20041;-71
2023/04/18 01:18:21;;;;;;;1.13;1.02;;;22.40;68.50;;;;;;5033308;28;20460;-71
2023/04/18 01:20:48;;;;;;;1.75;1.10;;;22.40;68.40;;;;;;5015788;28;20402;-71
2023/04/18 01:23:14;;;;;;;1.20;1.05;;;22.50;68.50;;;;;;5033253;28;20029;-71
2023/04/18 01:25:40;;;;;;;2.95;1.45;;;22.50;68.50;;;;;;5033151;28;20033;-71
2023/04/18 01:28:06;;;;;;;2.00;1.05;;;22.50;68.50;;;;;;5031942;28;20032;-71
2023/04/18 01:30:35;;;;;;;0.95;0.95;;;22.50;68.50;;;;;;5033088;28;20044;-71
2023/04/18 01:33:01;;;;;;;1.38;1.27;;;22.50;68.50;;;;;;5032064;28;20030;-71
2023/04/18 01:35:27;;;;;;;1.40;1.30;;;22.50;68.50;;;;;;5031907;28;20084;-71
2023/04/18 01:37:53;;;;;;;1.52;1.30;;;22.50;68.40;;;;;;5031821;28;20036;-71
2023/04/18 01:40:18;;;;;;;1.30;1.20;;;22.50;68.40;;;;;;5032074;28;20017;-71
2023/04/18 01:42:44;;;;;;;1.00;1.00;;;22.50;68.40;;;;;;5032895;28;20476;-71
2023/04/18 01:45:10;;;;;;;1.13;1.02;;;22.50;68.40;;;;;;5032504;28;20037;-71
2023/04/18 01:47:36;;;;;;;1.10;1.08;;;22.50;68.40;;;;;;5031991;28;20029;-71
2023/04/18 01:50:02;;;;;;;1.40;1.30;;;22.50;68.40;;;;;;5033060;28;20024;-71
2023/04/18 01:52:28;;;;;;;1.20;1.13;;;22.60;68.40;;;;;;5031890;28;20028;-71
2023/04/18 01:54:53;;;;;;;1.33;1.15;;;22.50;68.40;;;;;;5031388;28;20124;-71
2023/04/18 01:57:19;;;;;;;1.45;1.10;;;22.50;68.40;;;;;;5032871;28;20361;-71
2023/04/18 01:59:45;;;;;;;2.35;1.20;;;22.60;68.50;;;;;;5032505;28;20029;-71
2023/04/18 02:02:10;;;;;;;1.05;1.00;;;22.60;68.50;;;;;;5032783;28;20037;-71
2023/04/18 02:04:36;;;;;;;1.33;1.23;;;22.60;68.50;;;;;;5032713;28;20034;-71
2023/04/18 02:07:02;;;;;;;1.17;1.08;;;22.60;68.40;;;;;;5032870;28;20464;-71
2023/04/18 02:09:27;;;;;;;1.55;1.30;;;22.60;68.40;;;;;;5031497;28;20052;-71
2023/04/18 02:11:55;;;;;;;1.00;1.00;;;22.60;68.40;;;;;;5032532;28;20101;-71
2023/04/18 02:14:20;;;;;;;1.42;1.33;;;22.60;68.30;;;;;;5031600;28;20727;-71
2023/04/18 02:16:46;;;;;;;1.30;1.20;;;22.60;68.30;;;;;;5032757;28;20535;-71
2023/04/18 02:19:12;;;;;;;1.35;1.25;;;22.60;68.40;;;;;;5032578;28;20021;-71
2023/04/18 02:21:37;;;;;;;1.73;1.27;;;22.60;68.30;;;;;;5032654;28;20033;-71
2023/04/18 02:24:03;;;;;;;1.25;1.20;;;22.60;68.30;;;;;;5034660;28;20488;-71
2023/04/18 02:26:29;;;;;;;1.60;1.50;;;22.60;68.20;;;;;;5036343;28;20420;-71
2023/04/18 02:28:54;;;;;;;1.77;0.95;;;22.60;68.20;;;;;;5036465;28;20033;-71
2023/04/18 02:31:20;;;;;;;2.65;1.25;;;22.60;68.20;;;;;;5034996;28;20026;-71
2023/04/18 02:33:48;;;;;;;1.30;1.20;;;22.60;68.30;;;;;;5036206;28;20568;-71
2023/04/18 02:36:14;;;;;;;1.45;1.35;;;22.60;68.20;;;;;;5036641;28;20029;-71
2023/04/18 02:38:39;;;;;;;1.48;1.20;;;22.60;68.30;;;;;;5036285;28;20541;-71
2023/04/18 02:41:05;;;;;;;1.40;1.30;;;22.70;68.30;;;;;;5036116;28;20025;-71
2023/04/18 02:43:31;;;;;;;1.35;1.25;;;22.70;68.30;;;;;;5036164;28;20036;-71
2023/04/18 02:45:57;;;;;;;3.42;1.27;;;22.70;68.30;;;;;;5034744;28;20365;-71
2023/04/18 02:48:23;;;;;;;1.08;1.02;;;22.60;68.20;;;;;;5036200;28;20040;-71
2023/04/18 02:50:48;;;;;;;2.05;1.23;;;22.70;68.20;;;;;;5036061;28;20025;-71
2023/04/18 02:53:15;;;;;;;1.77;1.23;;;22.70;68.30;;;;;;5035877;28;20034;-71
2023/04/18 02:55:41;;;;;;;1.30;1.20;;;22.70;68.30;;;;;;5035697;28;20045;-71
2023/04/18 02:58:07;;;;;;;1.30;1.20;;;22.70;68.30;;;;;;5034657;28;20411;-71
2023/04/18 03:00:33;;;;;;;1.27;1.17;;;22.70;68.30;;;;;;5035816;28;20017;-70
2023/04/18 03:02:58;;;;;;;0.90;0.90;;;22.70;68.30;;;;;;5036126;28;20026;-71
2023/04/18 03:05:24;;;;;;;1.65;1.40;;;22.70;68.30;;;;;;5035579;28;20103;-71
2023/04/18 03:07:49;;;;;;;4.80;1.20;;;22.60;68.20;;;;;;5035758;28;20365;-70
2023/04/18 03:10:15;;;;;;;1.30;1.20;;;22.70;68.30;;;;;;5035367;28;20108;-70
2023/04/18 03:12:44;;;;;;;1.40;1.30;;;22.70;68.30;;;;;;5034486;28;20025;-71
2023/04/18 03:15:10;;;;;;;1.50;1.40;;;22.60;68.30;;;;;;5035559;28;20026;-71
2023/04/18 03:17:35;;;;;;;1.48;1.27;;;22.70;68.40;;;;;;5035621;28;20025;-71
2023/04/18 03:20:01;;;;;;;2.90;1.33;;;22.70;68.40;;;;;;5035716;28;20088;-71
2023/04/18 03:22:27;;;;;;;1.33;1.23;;;22.70;68.40;;;;;;5035526;28;20468;-71
2023/04/18 03:24:52;;;;;;;1.30;1.20;;;22.60;68.40;;;;;;5035296;28;20030;-71
2023/04/18 03:27:18;;;;;;;1.38;1.15;;;22.70;68.40;;;;;;5035268;28;20025;-71
2023/04/18 03:29:43;;;;;;;1.58;1.35;;;22.70;68.30;;;;;;5035421;28;20022;-70
2023/04/18 03:32:09;;;;;;;1.33;1.23;;;22.60;68.40;;;;;;5035385;28;20029;-71
2023/04/18 03:34:35;;;;;;;1.48;1.23;;;22.70;68.50;;;;;;5035065;28;20021;-71
2023/04/18 03:37:01;;;;;;;1.05;1.00;;;22.70;68.50;;;;;;5035410;28;20030;-71
2023/04/18 03:39:26;;;;;;;2.53;1.50;;;22.70;68.60;;;;;;5035034;28;20084;-70
2023/04/18 03:41:52;;;;;;;1.38;1.27;;;22.70;69.60;;;;;;5035241;28;20037;-70
2023/04/18 03:44:17;;;;;;;1.50;1.40;;;22.70;68.60;;;;;;5035046;28;20025;-70
2023/04/18 03:46:43;;;;;;;1.50;1.40;;;22.70;68.70;;;;;;5035240;28;20380;-70
2023/04/18 03:49:09;;;;;;;2.40;1.20;;;22.70;68.60;;;;;;5035091;28;20029;-70
2023/04/18 03:51:42;;;;;;;1.20;1.10;;;22.70;68.70;;;;;;5035032;28;20029;-70
2023/04/18 03:54:07;;;;;;;1.60;1.50;;;22.70;68.70;;;;;;5033256;28;20056;-70
2023/04/18 03:56:33;;;;;;;1.10;1.10;;;22.70;68.60;;;;;;5034855;28;20034;-70
2023/04/18 03:58:59;;;;;;;2.50;1.42;;;22.70;68.70;;;;;;5033840;28;20029;-71
2023/04/18 04:01:25;;;;;;;1.95;1.33;;;22.70;68.70;;;;;;5034657;28;20526;-71
2023/04/18 04:03:50;;;;;;;2.05;1.40;;;22.70;68.70;;;;;;5034565;28;20100;-71
2023/04/18 04:06:16;;;;;;;1.30;1.20;;;22.70;68.70;;;;;;5034656;28;20435;-71
2023/04/18 04:08:42;;;;;;;1.67;1.33;;;22.70;68.60;;;;;;5033065;28;20024;-71
2023/04/18 04:11:08;;;;;;;1.45;1.35;;;22.70;68.70;;;;;;5034840;28;20028;-70
2023/04/18 04:13:34;;;;;;;1.20;1.10;;;22.70;68.60;;;;;;5034549;28;20045;-70
2023/04/18 04:16:00;;;;;;;1.02;1.02;;;22.70;68.60;;;;;;5034517;28;20052;-70
2023/04/18 04:18:29;;;;;;;1.23;1.13;;;22.70;68.60;;;;;;5033165;28;20017;-70
2023/04/18 04:20:56;;;;;;;1.52;1.42;;;22.70;68.60;;;;;;5034592;28;20025;-70
2023/04/18 04:23:24;;;;;;;1.45;1.35;;;22.70;68.60;;;;;;5034164;28;20049;-70
2023/04/18 04:25:51;;;;;;;1.30;1.30;;;22.70;68.60;;;;;;5033082;28;20033;-70
2023/04/18 04:28:25;;;;;;;2.45;1.30;;;22.70;68.60;;;;;;5033011;28;20067;-70
2023/04/18 04:30:51;;;;;;;1.40;1.30;;;22.70;68.50;;;;;;5032994;28;20079;-70
2023/04/18 04:33:20;;;;;;;1.40;1.20;;;22.70;68.50;;;;;;5032942;28;20021;-70
2023/04/18 04:35:46;;;;;;;1.30;1.27;;;22.70;68.50;;;;;;5032795;28;20029;-70
2023/04/18 04:38:14;;;;;;;1.30;1.20;;;22.70;68.50;;;;;;5016317;28;20090;-70
2023/04/18 04:40:40;;;;;;;2.45;1.30;;;22.70;68.50;;;;;;5034069;28;20028;-70
2023/04/18 04:43:06;;;;;;;1.50;1.38;;;22.70;68.50;;;;;;5032749;28;20025;-70
2023/04/18 04:45:32;;;;;;;2.42;1.40;;;22.70;68.50;;;;;;5032052;28;20036;-70
2023/04/18 04:47:58;;;;;;;1.35;1.25;;;22.70;68.50;;;;;;5032832;28;20017;-70
2023/04/18 04:50:24;;;;;;;2.00;1.30;;;22.70;68.60;;;;;;5033932;28;20032;-70
2023/04/18 04:52:50;;;;;;;1.33;1.23;;;22.70;68.60;;;;;;5033810;28;20068;-70
2023/04/18 04:55:16;;;;;;;1.30;1.20;;;22.70;68.50;;;;;;5032307;28;20053;-70
2023/04/18 04:57:43;;;;;;;1.83;1.45;;;22.70;68.50;;;;;;5033845;28;20060;-70
2023/04/18 05:00:10;;;;;;;1.88;1.10;;;22.70;68.50;;;;;;5033843;28;20029;-70
2023/04/18 05:02:35;;;;;;;1.40;1.30;;;22.70;68.60;;;;;;5033622;28;20018;-70
2023/04/18 05:05:01;;;;;;;1.60;1.50;;;22.70;68.50;;;;;;5033784;28;20036;-71
2023/04/18 05:07:27;;;;;;;1.40;1.27;;;22.70;68.50;;;;;;5032028;28;20025;-71
2023/04/18 05:09:52;;;;;;;1.50;1.40;;;22.70;68.50;;;;;;5033417;28;20472;-71
2023/04/18 05:12:18;;;;;;;1.40;1.33;;;22.70;68.50;;;;;;5033579;28;20057;-71
2023/04/18 05:14:44;;;;;;;1.20;1.20;;;22.70;68.50;;;;;;5033530;28;20140;-71
2023/04/18 05:17:09;;;;;;;2.20;1.40;;;22.70;68.50;;;;;;5033464;28;20041;-71
2023/04/18 05:19:35;;;;;;;1.30;1.20;;;22.70;68.60;;;;;;5033199;28;20021;-71
2023/04/18 05:22:00;;;;;;;1.33;1.23;;;22.70;68.50;;;;;;5033246;28;20361;-71
2023/04/18 05:24:26;;;;;;;1.23;1.13;;;22.70;68.50;;;;;;5033141;28;20029;-71
2023/04/18 05:26:52;;;;;;;1.60;1.50;;;22.70;68.60;;;;;;5032052;28;20030;-71
2023/04/18 05:29:17;;;;;;;1.60;1.50;;;22.70;68.60;;;;;;5033267;28;20044;-71
2023/04/18 05:31:43;;;;;;;1.67;1.58;;;22.70;68.60;;;;;;5032035;28;20050;-71
2023/04/18 05:34:09;;;;;;;1.70;1.48;;;22.70;68.50;;;;;;5033305;28;20525;-71
2023/04/18 05:36:34;;;;;;;1.13;1.13;;;22.60;68.50;;;;;;5031717;28;20080;-71
2023/04/18 05:39:00;;;;;;;1.40;1.30;;;22.70;68.60;;;;;;5032117;28;20476;-70
2023/04/18 05:41:25;;;;;;;1.30;1.20;;;22.70;68.70;;;;;;5031762;28;20065;-70
2023/04/18 05:43:51;;;;;;;1.25;1.15;;;22.60;68.60;;;;;;5032729;28;20116;-70
2023/04/18 05:46:17;;;;;;;1.50;1.40;;;22.70;68.70;;;;;;5033263;28;20021;-69
2023/04/18 05:48:42;;;;;;;1.52;1.38;;;22.70;68.80;;;;;;5032845;28;20033;-71
2023/04/18 05:51:08;;;;;;;2.97;2.78;;;22.70;68.90;;;;;;5032429;28;20538;-70
2023/04/18 05:53:34;;;;;;;4.07;2.55;;;22.60;66.30;;;;;;5032666;28;20446;-70
2023/04/18 05:56:00;;;;;;;3.60;3.30;;;22.40;64.70;;;;;;5032841;28;20025;-70
2023/04/18 05:58:27;;;;;;;3.97;3.60;;;22.30;62.80;;;;;;5035758;28;20113;-69
2023/04/18 06:00:53;;;;;;;4.88;4.43;;;22.20;62.10;;;;;;5036956;28;20028;-70
2023/04/18 06:03:18;;;;;;;5.30;4.47;;;22.00;61.90;;;;;;5036950;28;20021;-69
2023/04/18 06:05:44;;;;;;;5.10;4.60;;;21.90;61.40;;;;;;5036571;28;20037;-69
2023/04/18 06:08:10;;;;;;;5.35;4.85;;;21.90;61.20;;;;;;5036626;28;20025;-69
2023/04/18 06:10:35;;;;;;;5.68;5.10;;;21.80;60.80;;;;;;5036399;28;20079;-69
2023/04/18 06:13:01;;;;;;;6.00;5.40;;;21.70;61.00;;;;;;5036830;28;20100;-69
2023/04/18 06:15:27;;;;;;;6.88;5.93;;;21.60;60.70;;;;;;5035345;28;20032;-69
2023/04/18 06:17:53;;;;;;;6.15;5.43;;;21.60;60.50;;;;;;5035349;28;20037;-70
2023/04/18 06:20:18;;;;;;;6.03;5.43;;;21.50;60.20;;;;;;5036415;28;20022;-70
2023/04/18 06:22:44;;;;;;;8.05;5.97;;;21.50;60.40;;;;;;5036489;28;20112;-70
2023/04/18 06:25:09;;;;;;;6.93;6.20;;;21.40;60.30;;;;;;5036560;28;20029;-70
2023/04/18 06:27:36;;;;;;;7.03;6.30;;;21.40;60.60;;;;;;5036344;28;20049;-70
2023/04/18 06:30:02;;;;;;;7.93;6.60;;;21.30;60.40;;;;;;5035033;28;20018;-70
2023/04/18 06:32:28;;;;;;;6.97;6.28;;;21.20;60.30;;;;;;5034895;28;20481;-70
2023/04/18 06:34:54;;;;;;;7.32;6.63;;;21.20;60.30;;;;;;5036167;28;20021;-70
2023/04/18 06:37:19;;;;;;;7.18;6.43;;;21.20;60.40;;;;;;5036246;28;20438;-69
2023/04/18 06:39:45;;;;;;;15.18;8.32;;;21.10;60.50;;;;;;5035729;28;20033;-70
2023/04/18 06:42:11;;;;;;;13.77;8.40;;;21.10;60.90;;;;;;5033879;28;20033;-70
2023/04/18 06:44:36;;;;;;;14.70;7.70;;;21.00;61.50;;;;;;5035332;28;20033;-70
2023/04/18 06:47:02;;;;;;;12.65;8.00;;;21.00;62.70;;;;;;5035725;28;20055;-70
2023/04/18 06:49:28;;;;;;;11.60;8.23;;;21.00;62.10;;;;;;5034120;28;20468;-70
2023/04/18 06:51:53;;;;;;;9.90;7.95;;;20.90;61.90;;;;;;5035539;28;20484;-70
2023/04/18 06:54:19;;;;;;;9.73;8.52;;;20.90;62.10;;;;;;5035379;28;20408;-70
2023/04/18 06:56:44;;;;;;;11.05;8.65;;;20.90;61.60;;;;;;5035261;28;20555;-70
2023/04/18 06:59:10;;;;;;;9.65;7.80;;;20.80;61.60;;;;;;5035274;28;20488;-70
2023/04/18 07:01:40;;;;;;;12.55;8.82;;;20.70;61.70;;;;;;5035231;28;20029;-70
2023/04/18 07:04:06;;;;;;;10.25;8.77;;;20.70;61.70;;;;;;5035039;28;20026;-70
2023/04/18 07:06:33;;;;;;;10.48;8.85;;;20.70;61.80;;;;;;5035077;28;20032;-70
2023/04/18 07:09:00;;;;;;;11.80;8.38;;;20.60;61.70;;;;;;5033156;28;20018;-70
2023/04/18 07:11:26;;;;;;;10.00;8.75;;;20.50;61.70;;;;;;5034901;28;20561;-70
2023/04/18 07:13:52;;;;;;;11.25;9.90;;;20.50;61.70;;;;;;5033928;28;20017;-70
2023/04/18 07:16:17;;;;;;;11.85;9.82;;;20.50;61.80;;;;;;5033912;28;20514;-70
2023/04/18 07:18:43;;;;;;;11.77;10.55;;;20.50;61.90;;;;;;5034672;28;20528;-70
2023/04/18 07:21:08;;;;;;;12.02;10.07;;;20.40;61.80;;;;;;5034972;28;20026;-70
2023/04/18 07:23:34;;;;;;;12.18;9.80;;;20.40;61.80;;;;;;5034926;28;20059;-70
2023/04/18 07:26:01;;;;;;;12.00;10.45;;;20.30;61.80;;;;;;5033612;28;20025;-70
2023/04/18 07:28:27;;;;;;;13.23;10.35;;;20.30;62.00;;;;;;5034967;28;20018;-70
2023/04/18 07:30:54;;;;;;;12.05;10.38;;;20.30;62.00;;;;;;5034849;28;20468;-70
2023/04/18 07:33:20;;;;;;;11.85;10.13;;;20.20;61.80;;;;;;5033521;28;20025;-70
2023/04/18 07:35:45;;;;;;;15.52;10.80;;;20.20;62.00;;;;;;5034820;28;20033;-70
2023/04/18 07:38:11;;;;;;;13.30;10.77;;;20.20;62.00;;;;;;5033414;28;20064;-70
2023/04/18 07:40:37;;;;;;;13.32;10.82;;;20.20;62.10;;;;;;5016719;28;20036;-70
2023/04/18 07:43:03;;;;;;;13.65;11.35;;;20.10;62.00;;;;;;5034581;28;20029;-70
2023/04/18 07:45:28;;;;;;;12.57;11.30;;;20.10;62.30;;;;;;5033000;28;20040;-70
2023/04/18 07:47:54;;;;;;;12.63;10.77;;;20.10;62.20;;;;;;5033223;28;20026;-70
2023/04/18 07:50:20;;;;;;;13.65;11.80;;;20.00;62.10;;;;;;5034448;28;20021;-70
2023/04/18 07:52:47;;;;;;;12.65;11.32;;;20.00;62.20;;;;;;5034312;28;20096;-70
2023/04/18 07:55:13;;;;;;;14.18;11.43;;;20.00;62.20;;;;;;5033088;28;20049;-70
2023/04/18 07:57:41;;;;;;;14.02;11.27;;;19.90;62.10;;;;;;5034363;28;20053;-70
2023/04/18 08:00:08;;;;;;;13.07;11.68;;;19.90;62.10;;;;;;5034032;28;20053;-70
2023/04/18 08:02:34;;;;;;;12.60;10.80;;;19.80;62.00;;;;;;5032912;28;20024;-70
2023/04/18 08:04:59;;;;;;;13.88;11.73;;;19.80;62.10;;;;;;5033046;28;20037;-70
2023/04/18 08:07:25;;;;;;;13.85;11.80;;;19.80;61.90;;;;;;5034038;28;20026;-70
2023/04/18 08:09:51;;;;;;;13.55;10.93;;;19.80;62.10;;;;;;5033915;28;20033;-70
2023/04/18 08:12:16;;;;;;;13.60;11.40;;;19.70;62.20;;;;;;5034015;28;20407;-70
2023/04/18 08:14:42;;;;;;;14.63;11.82;;;19.70;62.20;;;;;;5032746;28;20029;-70
2023/04/18 08:17:08;;;;;;;13.15;11.23;;;19.70;63.30;;;;;;5033885;28;20022;-70
2023/04/18 08:19:33;;;;;;;12.75;10.82;;;19.70;62.30;;;;;;5033279;28;20036;-70
2023/04/18 08:22:09;;;;;;;13.10;10.73;;;19.70;62.20;;;;;;5033604;28;20063;-70
2023/04/18 08:24:38;;;;;;;12.90;10.50;;;19.60;62.30;;;;;;5032413;28;20160;-70
2023/04/18 08:27:04;;;;;;;12.45;11.15;;;19.60;62.30;;;;;;5032679;28;20022;-70
2023/04/18 08:29:30;;;;;;;11.80;10.05;;;19.60;62.20;;;;;;5015724;28;20036;-70
2023/04/18 08:31:55;;;;;;;12.00;10.70;;;19.60;62.40;;;;;;5033498;28;20383;-70
2023/04/18 08:34:21;;;;;;;13.90;10.70;;;19.50;62.20;;;;;;5033634;28;20083;-70
2023/04/18 08:36:47;;;;;;;14.38;10.57;;;19.50;62.20;;;;;;5033492;28;20095;-70
2023/04/18 08:39:12;;;;;;;12.90;10.82;;;19.50;62.10;;;;;;5033500;28;20036;-70
2023/04/18 08:41:38;;;;;;;12.00;10.77;;;19.50;62.20;;;;;;5015611;28;20036;-70
2023/04/18 08:44:04;;;;;;;12.45;10.55;;;19.40;62.00;;;;;;5031919;28;20037;-70
2023/04/18 08:46:34;;;;;;;12.27;10.75;;;19.40;62.20;;;;;;5048699;28;20040;-70
2023/04/18 08:49:02;;;;;;;12.30;10.18;;;19.40;62.30;;;;;;5043125;28;20033;-70
2023/04/18 08:51:34;;;;;;;11.85;10.48;;;19.40;62.40;;;;;;5013534;28;20046;-70
2023/04/18 08:54:03;;;;;;;12.43;10.60;;;19.30;62.30;;;;;;5045130;28;20060;-70
2023/04/18 08:56:32;;;;;;;10.38;9.32;;;19.30;62.50;;;;;;5028236;28;20030;-70
2023/04/18 08:58:59;;;;;;;11.05;9.65;;;19.30;62.50;;;;;;5011888;28;20526;-70
2023/04/18 09:01:56;;;;;;;10.95;9.63;;;19.30;62.50;;;;;;5013377;28;20025;-70
2023/04/18 09:04:35;;;;;;;10.27;9.13;;;19.30;62.40;;;;;;5012323;28;20068;-70
2023/04/18 09:07:04;;;;;;;11.15;9.82;;;19.20;62.50;;;;;;5012261;28;20018;-70
2023/04/18 09:09:43;;;;;;;12.27;9.52;;;19.20;62.50;;;;;;4996040;28;20385;-70
2023/04/18 09:12:10;;;;;;;12.50;9.88;;;19.20;62.70;;;;;;5011913;28;20013;-70
2023/04/18 09:14:36;;;;;;;11.23;9.85;;;19.20;62.70;;;;;;5011594;28;20033;-70
2023/04/18 09:17:03;;;;;;;11.18;9.82;;;19.10;62.40;;;;;;5012005;28;20017;-70
2023/04/18 09:19:29;;;;;;;10.27;9.15;;;19.10;62.60;;;;;;5013160;28;20061;-70
2023/04/18 09:21:58;;;;;;;10.40;9.30;;;19.10;62.60;;;;;;5012758;28;20052;-70
2023/04/18 09:24:25;;;;;;;12.50;9.98;;;19.00;62.50;;;;;;5011842;28;20033;-70
2023/04/18 09:26:55;;;;;;;11.43;9.82;;;19.00;62.60;;;;;;5013024;28;20041;-70
2023/04/18 09:29:22;;;;;;;12.20;10.45;;;19.00;62.60;;;;;;5011791;28;20472;-70
2023/04/18 09:31:54;;;;;;;16.02;11.35;;;19.00;62.60;;;;;;5044524;28;20028;-70
2023/04/18 09:34:23;;;;;;;11.57;10.05;;;19.00;62.60;;;;;;5012802;28;20029;-70
2023/04/18 09:37:07;;;;;;;11.50;9.95;;;19.00;62.70;;;;;;5012855;28;20033;-70
2023/04/18 09:39:33;;;;;;;11.45;9.20;;;18.90;62.60;;;;;;5011777;28;20022;-70
2023/04/18 09:41:59;;;;;;;10.95;9.35;;;18.90;62.80;;;;;;5025066;28;20078;-70
2023/04/18 09:44:25;;;;;;;12.93;10.82;;;18.90;62.70;;;;;;5032257;28;20036;-70
2023/04/18 09:46:50;;;;;;;12.18;10.73;;;18.90;62.60;;;;;;5031150;28;20022;-70
2023/04/18 09:49:16;;;;;;;11.10;9.98;;;18.90;62.70;;;;;;5031048;28;20024;-70
2023/04/18 09:51:42;;;;;;;13.00;9.73;;;18.80;62.80;;;;;;5032439;28;20022;-70
2023/04/18 09:54:15;;;;;;;12.90;9.88;;;18.80;62.90;;;;;;5030914;28;20128;-70
2023/04/18 09:56:42;;;;;;;;;;;18.80;62.90;;;;;;5015975;28;20034;-70
2023/04/18 09:59:08;;;;;;;10.88;9.77;;;18.80;63.00;;;;;;5032465;28;19901;-70
2023/04/18 10:01:34;;;;;;;11.70;9.70;;;18.80;62.90;;;;;;5032253;28;20029;-70
2023/04/18 10:04:05;;;;;;;13.40;10.27;;;18.80;62.90;;;;;;5030900;28;20436;-70
2023/04/18 10:06:32;;;;;;;12.95;9.98;;;18.80;63.00;;;;;;5031003;28;20033;-70
2023/04/18 10:08:58;;;;;;;12.80;10.38;;;18.80;63.00;;;;;;5030965;28;20048;-70
2023/04/18 10:11:24;;;;;;;10.98;9.60;;;18.70;63.00;;;;;;5014425;28;20507;-70
2023/04/18 10:13:52;;;;;;;11.75;9.90;;;18.70;62.90;;;;;;5031945;28;20028;-70
2023/04/18 10:16:19;;;;;;;11.45;9.95;;;18.70;63.00;;;;;;5014970;28;20032;-70
2023/04/18 10:18:45;;;;;;;12.85;9.68;;;18.70;63.20;;;;;;5030868;28;20025;-70
2023/04/18 10:21:10;;;;;;;13.13;10.68;;;18.70;63.10;;;;;;5032077;28;20009;-70
2023/04/18 10:23:37;;;;;;;12.77;11.20;;;18.70;63.20;;;;;;5030939;28;20423;-70
2023/04/18 10:26:12;;;;;;;12.27;10.93;;;18.60;63.20;;;;;;5030648;28;20076;-70
2023/04/18 10:28:55;;;;;;;15.88;12.55;;;18.60;63.00;;;;;;5015529;28;20025;-70
2023/04/18 10:31:22;;;;;;;13.40;11.23;;;18.60;63.10;;;;;;5032177;28;20376;-70
2023/04/18 10:33:48;;;;;;;15.57;11.43;;;18.60;63.20;;;;;;5014347;28;20025;-70
2023/04/18 10:36:15;;;;;;;14.93;12.10;;;18.60;63.30;;;;;;5032012;28;20029;-70
2023/04/18 10:39:04;;;;;;;14.45;11.90;;;18.60;63.20;;;;;;5014516;28;20392;-70
2023/04/18 10:41:33;;;;;;;14.65;11.88;;;18.50;63.20;;;;;;5030275;28;20061;-70
2023/04/18 10:46:52;;;;;;;15.30;12.70;;;18.50;63.20;;;;;;5035764;28;20026;-70
2023/04/18 10:49:24;;;;;;;15.05;11.93;;;18.50;63.20;;;;;;5035486;28;20444;-70
2023/04/18 10:51:51;;;;;;;15.45;11.82;;;18.50;63.40;;;;;;5034275;28;20502;-70
2023/04/18 10:54:21;;;;;;;14.50;11.40;;;18.50;63.40;;;;;;5033834;28;20073;-70
2023/04/18 10:56:54;;;;;;;12.98;11.13;;;18.50;63.30;;;;;;5035402;28;20105;-70
2023/04/18 10:59:25;;;;;;;16.42;11.82;;;18.50;63.30;;;;;;5035441;28;20117;-70
2023/04/18 11:01:55;;;;;;;13.60;11.35;;;18.50;63.30;;;;;;5017593;28;20411;-70
2023/04/18 11:04:21;;;;;;;15.90;11.68;;;18.50;63.20;;;;;;5034179;28;20101;-70
2023/04/18 11:06:48;;;;;;;15.18;11.88;;;18.40;63.30;;;;;;5017430;28;20584;-70
2023/04/18 11:09:14;;;;;;;14.43;11.82;;;18.40;63.40;;;;;;5035057;28;20076;-70
2023/04/18 11:11:40;;;;;;;12.13;10.52;;;18.40;63.40;;;;;;5034093;28;20438;-70
2023/04/18 11:14:06;;;;;;;13.57;11.07;;;18.40;63.30;;;;;;5033827;28;20033;-70
2023/04/18 11:16:32;;;;;;;14.68;10.32;;;18.40;63.40;;;;;;5035238;28;20033;-70
2023/04/18 11:18:58;;;;;;;12.98;11.00;;;18.40;63.50;;;;;;5017439;28;20074;-70
2023/04/18 11:21:27;;;;;;;14.15;10.40;;;18.40;63.50;;;;;;5034898;28;20037;-70
2023/04/18 11:23:56;;;;;;;12.98;9.93;;;18.30;63.40;;;;;;5033463;28;20032;-70
2023/04/18 11:26:25;;;;;;;12.88;10.18;;;18.40;63.40;;;;;;5033860;28;20413;-70
2023/04/18 11:28:54;;;;;;;12.00;10.00;;;18.40;63.40;;;;;;5033698;28;20429;-70
2023/04/18 11:31:22;;;;;;;11.55;9.40;;;18.30;63.40;;;;;;5033646;28;20022;-70
2023/04/18 11:33:47;;;;;;;11.18;9.35;;;18.30;63.40;;;;;;5033486;28;20041;-70
2023/04/18 11:36:13;;;;;;;9.55;8.55;;;18.30;63.50;;;;;;5034672;28;20123;-70
2023/04/18 11:38:39;;;;;;;13.20;9.80;;;18.30;63.40;;;;;;5034402;28;20074;-70
2023/04/18 11:41:05;;;;;;;10.30;8.73;;;18.30;63.50;;;;;;5016876;28;20084;-70
2023/04/18 11:43:30;;;;;;;10.68;8.52;;;18.30;63.50;;;;;;5033196;28;20068;-70
2023/04/18 11:45:57;;;;;;;10.90;9.25;;;18.30;63.50;;;;;;5034433;28;20108;-70
2023/04/18 11:48:23;;;;;;;10.65;9.02;;;18.30;63.60;;;;;;5034524;28;20140;-70
2023/04/18 11:50:49;;;;;;;10.00;7.88;;;18.30;63.60;;;;;;5034392;28;20568;-70
2023/04/18 11:53:31;;;;;;;10.15;8.23;;;18.20;63.60;;;;;;5034286;28;20029;-70
2023/04/18 11:55:56;;;;;;;10.20;8.23;;;18.20;63.60;;;;;;5032885;28;20139;-70
2023/04/18 11:58:30;;;;;;;11.60;8.55;;;18.20;63.70;;;;;;5034335;28;20496;-70
2023/04/18 12:00:56;;;;;;;10.35;8.55;;;18.20;63.50;;;;;;5033035;28;20033;-70
2023/04/18 12:03:23;;;;;;;8.65;7.43;;;18.10;63.60;;;;;;5033128;28;20403;-70
2023/04/18 12:05:57;;;;;;;10.02;8.20;;;18.20;63.60;;;;;;5034337;28;20480;-70
2023/04/18 12:08:22;;;;;;;9.40;7.93;;;18.20;63.70;;;;;;5017187;28;20033;-70
2023/04/18 12:10:49;;;;;;;8.95;7.50;;;18.10;63.60;;;;;;5016168;28;20026;-70
2023/04/18 12:13:15;;;;;;;9.45;7.68;;;18.10;63.70;;;;;;5032847;28;20018;-70
2023/04/18 12:15:43;;;;;;;8.88;7.22;;;18.20;63.80;;;;;;5032757;28;20036;-70
2023/04/18 12:18:10;;;;;;;8.85;7.65;;;18.10;63.60;;;;;;5016546;28;20567;-70
2023/04/18 12:20:45;;;;;;;8.25;7.43;;;18.10;64.70;;;;;;5016725;28;20075;-70
2023/04/18 12:23:34;;;;;;;7.97;7.20;;;18.10;63.70;;;;;;5016547;28;20025;-70
2023/04/18 12:26:07;;;;;;;8.60;7.05;;;18.10;63.80;;;;;;5033646;28;20036;-70
2023/04/18 12:28:33;;;;;;;8.25;7.13;;;18.10;63.80;;;;;;5033746;28;20021;-70
2023/04/18 12:30:59;;;;;;;8.10;6.45;;;18.00;63.80;;;;;;5016140;28;20021;-70
2023/04/18 12:33:25;;;;;;;8.30;7.05;;;18.10;63.90;;;;;;5016073;28;20372;-70
2023/04/18 12:35:51;;;;;;;7.78;6.97;;;18.10;63.80;;;;;;5033226;28;20040;-70
2023/04/18 12:38:20;;;;;;;7.15;6.45;;;18.10;63.80;;;;;;5032628;28;20017;-70
2023/04/18 12:40:45;;;;;;;8.60;7.10;;;18.10;63.80;;;;;;5032192;28;20096;-70